Time;durP1;ratioP1;P1;durP2;ratioP2;P2;SDS_P1;SDS_P2;PMS_P1;PMS_P2;Temp;Humidity;BMP_temperature;BMP_pressure;BME280_temperature;BME280_humidity;BME280_pressure;Samples;Min_cycle;Max_cycle;Signal;HPM_P1;HPM_P2
2022/01/07 00:01:01;;;;;;;20.52;7.88;;;5.20;99.90;;;;;;5085429;28;20019;-76
2022/01/07 00:03:27;;;;;;;16.38;7.65;;;5.20;99.90;;;;;;5086524;28;20487;-76
2022/01/07 00:05:53;;;;;;;18.60;7.53;;;5.20;99.90;;;;;;5088675;28;20036;-76
2022/01/07 00:08:20;;;;;;;19.15;7.78;;;5.20;99.90;;;;;;5093138;28;20103;-75
2022/01/07 00:10:46;;;;;;;23.58;8.55;;;5.30;99.90;;;;;;5092045;28;20100;-76
2022/01/07 00:13:13;;;;;;;16.70;8.75;;;5.20;99.90;;;;;;5093058;28;20067;-76
2022/01/07 00:15:40;;;;;;;12.98;7.40;;;5.10;99.90;;;;;;5092245;28;20032;-76
2022/01/07 00:18:06;;;;;;;18.55;7.82;;;5.30;99.90;;;;;;5091300;28;20020;-76
2022/01/07 00:20:32;;;;;;;16.73;7.85;;;5.30;99.90;;;;;;5093329;28;20024;-76
2022/01/07 00:22:58;;;;;;;19.45;8.00;;;5.30;99.90;;;;;;5089107;28;20546;-76
2022/01/07 00:25:24;;;;;;;20.60;7.82;;;5.30;99.90;;;;;;5072278;28;20036;-76
2022/01/07 00:27:51;;;;;;;16.05;7.32;;;5.30;99.90;;;;;;5087485;28;20499;-76
2022/01/07 00:30:17;;;;;;;12.00;6.40;;;5.20;99.90;;;;;;5092944;28;20380;-77
2022/01/07 00:32:44;;;;;;;18.33;7.55;;;5.20;99.90;;;;;;5092910;28;20020;-77
2022/01/07 00:35:12;;;;;;;17.00;7.68;;;5.20;99.90;;;;;;5093417;28;20036;-77
2022/01/07 00:37:38;;;;;;;15.55;7.03;;;5.20;99.90;;;;;;5090274;28;20046;-77
2022/01/07 00:40:07;;;;;;;21.35;7.90;;;5.20;99.90;;;;;;5092088;28;20031;-77
2022/01/07 00:42:33;;;;;;;19.45;7.40;;;5.30;99.90;;;;;;5092084;28;20070;-77
2022/01/07 00:44:58;;;;;;;18.75;6.25;;;5.30;99.90;;;;;;5092526;28;20422;-73
2022/01/07 00:47:24;;;;;;;16.75;6.07;;;5.10;99.90;;;;;;5092736;28;20039;-72
2022/01/07 00:49:50;;;;;;;18.05;6.68;;;5.20;99.90;;;;;;5092469;28;20024;-73
2022/01/07 00:52:16;;;;;;;8.95;6.40;;;5.20;99.90;;;;;;5091987;28;20024;-76
2022/01/07 00:54:41;;;;;;;10.60;5.60;;;5.20;99.90;;;;;;5074557;28;20031;-76
2022/01/07 00:57:07;;;;;;;11.23;6.18;;;5.10;99.90;;;;;;5086118;28;20556;-76
2022/01/07 00:59:33;;;;;;;11.00;5.95;;;5.30;99.90;;;;;;5091489;28;20060;-76
2022/01/07 01:01:59;;;;;;;9.98;5.50;;;5.30;99.90;;;;;;5092396;28;20058;-76
2022/01/07 01:04:25;;;;;;;12.15;5.45;;;5.20;99.90;;;;;;5092169;28;20059;-75
2022/01/07 01:06:51;;;;;;;17.50;6.15;;;5.10;99.90;;;;;;5092306;28;20361;-76
2022/01/07 01:09:16;;;;;;;18.05;5.50;;;5.10;99.90;;;;;;5091108;28;20039;-76
2022/01/07 01:11:42;;;;;;;11.52;5.03;;;5.00;99.90;;;;;;5092309;28;20028;-76
2022/01/07 01:14:08;;;;;;;14.52;5.18;;;5.10;99.90;;;;;;5090545;28;20483;-75
2022/01/07 01:16:34;;;;;;;17.50;5.60;;;5.00;99.90;;;;;;5092271;28;20020;-75
2022/01/07 01:19:00;;;;;;;9.55;5.20;;;5.10;99.90;;;;;;5090347;28;20491;-76
2022/01/07 01:21:26;;;;;;;9.45;4.28;;;5.00;99.90;;;;;;5092077;28;20060;-75
2022/01/07 01:23:52;;;;;;;12.70;4.85;;;5.10;99.90;;;;;;5078095;28;20492;-75
2022/01/07 01:26:20;;;;;;;14.45;5.50;;;5.10;99.90;;;;;;5075968;28;20028;-74
2022/01/07 01:28:47;;;;;;;10.98;5.28;;;5.00;99.90;;;;;;5085162;28;20121;-75
2022/01/07 01:31:15;;;;;;;13.45;4.25;;;5.00;99.90;;;;;;5091950;28;20069;-74
2022/01/07 01:33:41;;;;;;;12.52;4.07;;;5.00;99.90;;;;;;5091684;28;20075;-75
2022/01/07 01:36:09;;;;;;;12.98;4.60;;;5.10;99.90;;;;;;5091236;28;20024;-75
2022/01/07 01:38:35;;;;;;;12.77;4.22;;;5.00;99.90;;;;;;5091911;28;20020;-75
2022/01/07 01:41:01;;;;;;;8.07;3.78;;;5.10;99.90;;;;;;5092086;28;20031;-75
2022/01/07 01:43:27;;;;;;;14.30;4.32;;;5.10;99.90;;;;;;5091653;28;20028;-75
2022/01/07 01:45:53;;;;;;;6.07;3.85;;;5.20;99.90;;;;;;5091458;28;20029;-75
2022/01/07 01:48:20;;;;;;;11.85;3.25;;;5.20;99.90;;;;;;5091940;28;20028;-75
2022/01/07 01:50:47;;;;;;;14.18;3.47;;;5.20;99.90;;;;;;5091300;28;20023;-75
2022/01/07 01:53:14;;;;;;;8.63;3.45;;;5.20;99.90;;;;;;5083437;28;20058;-76
2022/01/07 01:55:39;;;;;;;9.70;3.22;;;5.20;99.90;;;;;;5081662;28;20540;-76
2022/01/07 01:58:05;;;;;;;9.13;3.55;;;5.30;99.90;;;;;;5095765;28;20039;-75
2022/01/07 02:00:31;;;;;;;8.82;3.63;;;5.20;99.90;;;;;;5095856;28;20027;-75
2022/01/07 02:02:57;;;;;;;11.35;4.05;;;5.20;99.90;;;;;;5094965;28;20035;-76
2022/01/07 02:05:23;;;;;;;7.82;2.85;;;5.30;99.90;;;;;;5094525;28;20036;-76
2022/01/07 02:07:50;;;;;;;10.00;3.47;;;5.30;99.90;;;;;;5089345;28;20027;-76
2022/01/07 02:10:16;;;;;;;8.70;3.50;;;5.20;99.90;;;;;;5094027;28;20036;-76
2022/01/07 02:12:43;;;;;;;6.35;3.13;;;5.20;99.90;;;;;;5095732;28;20078;-76
2022/01/07 02:15:10;;;;;;;7.78;3.28;;;5.30;99.90;;;;;;5095656;28;20050;-76
2022/01/07 02:17:41;;;;;;;6.18;3.00;;;5.30;99.90;;;;;;5095701;28;20028;-76
2022/01/07 02:20:07;;;;;;;10.57;2.97;;;5.30;99.90;;;;;;5093905;28;20115;-76
2022/01/07 02:22:33;;;;;;;7.72;3.58;;;5.30;99.90;;;;;;5094650;28;20024;-75
2022/01/07 02:24:59;;;;;;;11.50;3.80;;;5.30;99.90;;;;;;5090518;28;20438;-75
2022/01/07 02:27:25;;;;;;;8.55;3.28;;;5.30;99.90;;;;;;5086693;28;20036;-75
2022/01/07 02:29:51;;;;;;;7.65;3.50;;;5.30;99.90;;;;;;5095606;28;20024;-75
2022/01/07 02:32:18;;;;;;;13.40;3.58;;;5.40;99.90;;;;;;5093818;28;20107;-75
2022/01/07 02:34:45;;;;;;;9.07;3.80;;;5.30;99.90;;;;;;5092474;28;20027;-75
2022/01/07 02:37:12;;;;;;;9.75;2.75;;;5.30;99.90;;;;;;5095008;28;20509;-75
2022/01/07 02:39:38;;;;;;;12.80;4.05;;;5.30;99.90;;;;;;5094282;28;20023;-75
2022/01/07 02:42:05;;;;;;;10.73;3.65;;;5.30;99.90;;;;;;5094007;28;20093;-75
2022/01/07 02:44:31;;;;;;;8.98;4.03;;;5.30;99.90;;;;;;5095572;28;20464;-76
2022/01/07 02:46:57;;;;;;;7.50;3.65;;;5.30;99.90;;;;;;5089456;28;20077;-75
2022/01/07 02:49:22;;;;;;;11.75;3.72;;;5.30;99.90;;;;;;5086389;28;20067;-75
2022/01/07 02:51:48;;;;;;;13.63;3.55;;;5.40;99.90;;;;;;5093997;28;20475;-76
2022/01/07 02:54:14;;;;;;;11.52;3.15;;;5.40;99.90;;;;;;5093755;28;20031;-75
2022/01/07 02:56:40;;;;;;;11.55;3.92;;;5.30;99.90;;;;;;5088176;28;20442;-75
2022/01/07 02:59:08;;;;;;;9.77;3.78;;;5.40;99.90;;;;;;5094734;28;20108;-75
2022/01/07 03:01:35;;;;;;;13.05;4.20;;;5.20;99.90;;;;;;5093227;28;20039;-74
2022/01/07 03:04:01;;;;;;;15.02;5.00;;;5.20;99.90;;;;;;5093430;28;20522;-75
2022/01/07 03:06:27;;;;;;;10.95;3.88;;;5.20;99.90;;;;;;5076965;28;20032;-76
2022/01/07 03:08:53;;;;;;;14.10;3.78;;;5.20;99.90;;;;;;5082769;28;20016;-76
2022/01/07 03:11:20;;;;;;;10.88;4.30;;;5.30;99.90;;;;;;5085314;28;20085;-75
2022/01/07 03:13:46;;;;;;;12.27;4.00;;;5.30;99.90;;;;;;5084106;28;20393;-75
2022/01/07 03:16:12;;;;;;;12.27;4.85;;;5.30;99.90;;;;;;5083974;28;20089;-77
2022/01/07 03:18:38;;;;;;;20.75;4.70;;;5.30;99.90;;;;;;5083878;28;20024;-74
2022/01/07 03:21:04;;;;;;;8.98;4.30;;;5.40;99.90;;;;;;5083147;28;20522;-74
2022/01/07 03:23:31;;;;;;;7.72;3.80;;;5.40;99.90;;;;;;5085019;28;20055;-76
2022/01/07 03:25:57;;;;;;;11.10;4.57;;;5.30;99.90;;;;;;5084744;28;20448;-75
2022/01/07 03:28:23;;;;;;;14.48;4.55;;;5.30;99.90;;;;;;5083136;28;20038;-75
2022/01/07 03:30:49;;;;;;;8.48;4.32;;;5.30;99.90;;;;;;5083191;28;20017;-75
2022/01/07 03:33:15;;;;;;;10.13;3.47;;;5.30;99.90;;;;;;5084279;28;20024;-78
2022/01/07 03:35:42;;;;;;;12.93;4.88;;;5.20;99.90;;;;;;5082129;28;20051;-77
2022/01/07 03:38:08;;;;;;;11.20;4.40;;;5.20;99.90;;;;;;5083763;28;20017;-76
2022/01/07 03:40:35;;;;;;;15.02;4.55;;;5.30;99.90;;;;;;5082669;28;20156;-77
2022/01/07 03:43:02;;;;;;;11.38;4.78;;;5.20;99.90;;;;;;5083461;28;20488;-75
2022/01/07 03:45:27;;;;;;;18.92;5.30;;;5.30;99.90;;;;;;5083570;28;20029;-75
2022/01/07 03:47:53;;;;;;;12.93;4.80;;;5.10;99.90;;;;;;5081915;28;20454;-75
2022/01/07 03:50:23;;;;;;;10.73;3.88;;;5.10;99.90;;;;;;5084943;28;20016;-75
2022/01/07 03:52:50;;;;;;;13.05;5.05;;;5.10;99.90;;;;;;5082989;28;20016;-75
2022/01/07 03:55:18;;;;;;;14.60;4.78;;;5.10;99.90;;;;;;5084259;28;20020;-76
2022/01/07 03:57:44;;;;;;;13.90;4.47;;;5.10;99.90;;;;;;5082559;28;20024;-75
2022/01/07 04:00:15;;;;;;;11.48;4.60;;;5.20;99.90;;;;;;5082048;28;20482;-75
2022/01/07 04:02:41;;;;;;;11.27;4.85;;;5.10;99.90;;;;;;5080817;28;20089;-76
2022/01/07 04:05:07;;;;;;;14.40;4.43;;;5.20;99.90;;;;;;5080663;28;20020;-75
2022/01/07 04:07:33;;;;;;;7.20;4.53;;;5.10;99.90;;;;;;5081335;28;20388;-75
2022/01/07 04:09:59;;;;;;;11.55;4.70;;;5.10;99.90;;;;;;5082597;28;20026;-76
2022/01/07 04:12:26;;;;;;;12.73;5.25;;;5.10;99.90;;;;;;5082774;28;20748;-76
2022/01/07 04:15:02;;;;;;;9.63;4.95;;;5.00;99.90;;;;;;5084633;28;20013;-76
2022/01/07 04:17:28;;;;;;;12.32;5.65;;;5.10;99.90;;;;;;5082360;28;20009;-76
2022/01/07 04:19:54;;;;;;;9.02;4.85;;;5.10;99.90;;;;;;5081507;28;20119;-76
2022/01/07 04:22:20;;;;;;;13.02;5.20;;;5.10;99.90;;;;;;5082797;28;20016;-75
2022/01/07 04:24:45;;;;;;;9.50;4.90;;;5.10;99.90;;;;;;5080963;28;20384;-75
2022/01/07 04:27:11;;;;;;;6.47;5.15;;;5.20;99.90;;;;;;5082104;28;20032;-77
2022/01/07 04:29:37;;;;;;;12.05;5.60;;;5.10;99.90;;;;;;5082959;28;20024;-76
2022/01/07 04:32:05;;;;;;;11.35;5.78;;;5.10;99.90;;;;;;5082644;28;20442;-76
2022/01/07 04:34:30;;;;;;;10.82;5.65;;;5.10;99.90;;;;;;5080555;28;20537;-76
2022/01/07 04:36:56;;;;;;;8.50;5.00;;;5.20;99.90;;;;;;5083778;28;20108;-76
2022/01/07 04:39:22;;;;;;;12.90;5.22;;;5.20;99.90;;;;;;5085712;28;20438;-76
2022/01/07 04:41:48;;;;;;;11.70;5.47;;;5.20;99.90;;;;;;5082215;28;20017;-76
2022/01/07 04:44:13;;;;;;;11.55;5.85;;;5.20;99.90;;;;;;5081379;28;20036;-76
2022/01/07 04:46:39;;;;;;;8.00;5.00;;;5.20;99.90;;;;;;5081380;28;20032;-76
2022/01/07 04:49:05;;;;;;;9.63;5.82;;;5.20;99.90;;;;;;5081711;28;20070;-76
2022/01/07 04:51:30;;;;;;;13.18;6.07;;;5.30;99.90;;;;;;5081935;28;20065;-76
2022/01/07 04:53:56;;;;;;;9.65;5.85;;;5.30;99.90;;;;;;5082566;28;20028;-76
2022/01/07 04:56:22;;;;;;;11.50;5.85;;;5.30;99.90;;;;;;5084328;28;20369;-77
2022/01/07 04:58:47;;;;;;;8.90;6.03;;;5.30;99.90;;;;;;5092859;28;20556;-75
2022/01/07 05:01:13;;;;;;;12.07;6.70;;;5.40;99.90;;;;;;5093197;28;20039;-75
2022/01/07 05:03:38;;;;;;;14.00;6.65;;;5.30;99.90;;;;;;5093141;28;20472;-75
2022/01/07 05:06:31;;;;;;;11.25;5.97;;;5.40;99.90;;;;;;5076446;28;20025;-75
2022/01/07 05:08:50;;;;;;;9.80;5.53;;;5.40;99.90;;;;;;5072845;28;20036;-75
2022/01/07 05:11:16;;;;;;;5.50;4.78;;;5.40;99.90;;;;;;5072885;28;20048;-75
2022/01/07 05:13:42;;;;;;;11.52;6.03;;;5.40;99.90;;;;;;5073308;28;20535;-75
2022/01/07 05:16:08;;;;;;;11.70;5.88;;;5.40;99.90;;;;;;5071920;28;20032;-75
2022/01/07 05:18:33;;;;;;;8.63;5.65;;;5.40;99.90;;;;;;5083291;28;20024;-75
2022/01/07 05:20:59;;;;;;;11.43;5.80;;;5.30;99.90;;;;;;5093243;28;20070;-75
2022/01/07 05:23:25;;;;;;;11.02;5.88;;;5.40;99.90;;;;;;5093339;28;20031;-76
2022/01/07 05:25:51;;;;;;;10.63;6.18;;;5.40;99.90;;;;;;5092879;28;20028;-75
2022/01/07 05:28:16;;;;;;;12.25;5.90;;;5.40;99.90;;;;;;5092538;28;20426;-76
2022/01/07 05:30:42;;;;;;;11.23;6.53;;;5.40;99.90;;;;;;5091288;28;20032;-76
2022/01/07 05:33:08;;;;;;;9.45;6.30;;;5.50;99.90;;;;;;5093214;28;20446;-76
2022/01/07 05:35:33;;;;;;;8.43;5.15;;;5.40;99.90;;;;;;5080773;28;20424;-76
2022/01/07 05:37:59;;;;;;;12.82;6.10;;;5.40;99.90;;;;;;5072771;28;20481;-76
2022/01/07 05:40:25;;;;;;;8.13;5.80;;;5.40;99.90;;;;;;5072862;28;20029;-75
2022/01/07 05:42:51;;;;;;;11.38;6.25;;;5.40;99.90;;;;;;5072731;28;20039;-75
2022/01/07 05:45:17;;;;;;;10.13;5.93;;;5.40;99.90;;;;;;5077778;28;20024;-76
2022/01/07 05:47:42;;;;;;;10.65;6.43;;;5.40;99.90;;;;;;5076116;28;20115;-75
2022/01/07 05:50:09;;;;;;;8.35;5.80;;;5.40;99.90;;;;;;5072722;28;20469;-75
2022/01/07 05:52:34;;;;;;;9.43;6.72;;;5.50;99.90;;;;;;5072736;28;20384;-74
2022/01/07 05:55:00;;;;;;;10.10;6.78;;;5.50;99.90;;;;;;5072112;28;20025;-75
2022/01/07 05:57:27;;;;;;;9.88;6.35;;;5.40;99.90;;;;;;5091850;28;20039;-74
2022/01/07 05:59:53;;;;;;;8.55;6.55;;;5.50;99.90;;;;;;5092504;28;20099;-74
2022/01/07 06:02:20;;;;;;;12.25;6.72;;;5.40;99.90;;;;;;5092393;28;20440;-75
2022/01/07 06:04:45;;;;;;;10.95;6.78;;;5.40;99.90;;;;;;5088209;28;20023;-75
2022/01/07 06:07:11;;;;;;;13.63;6.55;;;5.60;99.90;;;;;;5072672;28;20048;-75
2022/01/07 06:09:37;;;;;;;10.02;6.90;;;5.60;99.90;;;;;;5072299;28;20024;-75
2022/01/07 06:12:03;;;;;;;12.32;6.75;;;5.60;99.90;;;;;;5072299;28;20028;-75
2022/01/07 06:14:28;;;;;;;10.40;7.13;;;5.50;99.90;;;;;;5092440;28;20030;-74
2022/01/07 06:16:55;;;;;;;16.75;7.18;;;5.60;99.90;;;;;;5091564;28;20043;-75
2022/01/07 06:19:21;;;;;;;12.45;7.55;;;5.50;99.90;;;;;;5092950;28;20384;-74
2022/01/07 06:21:46;;;;;;;11.57;6.90;;;5.60;99.90;;;;;;5092548;28;20468;-75
2022/01/07 06:24:13;;;;;;;11.88;7.38;;;5.50;99.90;;;;;;5091718;28;20077;-75
2022/01/07 06:26:39;;;;;;;10.45;6.85;;;5.50;99.90;;;;;;5092434;28;20028;-75
2022/01/07 06:29:05;;;;;;;14.68;6.40;;;5.60;99.90;;;;;;5090120;28;20120;-75
2022/01/07 06:31:31;;;;;;;14.13;7.95;;;5.60;99.90;;;;;;5092283;28;20024;-75
2022/01/07 06:33:58;;;;;;;15.05;7.88;;;5.60;99.90;;;;;;5091781;28;20095;-75
2022/01/07 06:36:25;;;;;;;13.23;7.75;;;5.60;99.90;;;;;;5073268;28;20522;-75
2022/01/07 06:38:50;;;;;;;12.57;7.60;;;5.60;99.90;;;;;;5073644;28;20027;-76
2022/01/07 06:41:16;;;;;;;15.15;8.40;;;5.70;99.90;;;;;;5073389;28;20025;-76
2022/01/07 06:43:43;;;;;;;14.57;8.18;;;5.80;99.90;;;;;;5074790;28;20033;-76
2022/01/07 06:46:11;;;;;;;12.82;7.85;;;5.80;99.90;;;;;;5074667;28;20025;-75
2022/01/07 06:48:37;;;;;;;13.10;8.40;;;5.80;99.90;;;;;;5075216;28;20032;-76
2022/01/07 06:51:03;;;;;;;17.63;8.95;;;5.70;99.90;;;;;;5075673;28;20069;-76
2022/01/07 06:53:30;;;;;;;14.68;8.60;;;5.80;99.90;;;;;;5075961;28;20032;-76
2022/01/07 06:55:59;;;;;;;13.40;7.70;;;5.70;99.90;;;;;;5090396;28;20476;-76
2022/01/07 06:58:26;;;;;;;14.75;8.23;;;5.70;99.90;;;;;;5094958;28;20020;-76
2022/01/07 07:00:52;;;;;;;14.70;8.68;;;5.70;99.90;;;;;;5095690;28;20130;-76
2022/01/07 07:03:17;;;;;;;17.70;7.15;;;5.70;99.90;;;;;;5095626;28;20111;-76
2022/01/07 07:05:43;;;;;;;13.23;9.00;;;5.70;99.90;;;;;;5083946;28;20051;-76
2022/01/07 07:08:09;;;;;;;17.63;9.65;;;5.60;99.90;;;;;;5075229;28;20028;-76
2022/01/07 07:10:35;;;;;;;19.08;9.70;;;5.70;99.90;;;;;;5073895;28;20487;-75
2022/01/07 07:13:01;;;;;;;16.95;8.85;;;5.70;99.90;;;;;;5074942;28;20051;-75
2022/01/07 07:15:26;;;;;;;14.52;8.63;;;5.80;99.90;;;;;;5074555;28;20046;-76
2022/01/07 07:17:52;;;;;;;16.90;8.70;;;5.80;99.90;;;;;;5072875;28;20468;-75
2022/01/07 07:20:18;;;;;;;12.90;8.23;;;5.80;99.90;;;;;;5074104;28;20020;-75
2022/01/07 07:22:44;;;;;;;19.42;10.27;;;5.80;99.90;;;;;;5074211;28;20411;-76
2022/01/07 07:25:10;;;;;;;21.25;10.27;;;5.80;99.90;;;;;;5075107;28;20032;-76
2022/01/07 07:27:37;;;;;;;16.58;9.27;;;5.90;99.90;;;;;;5073728;28;20036;-76
2022/01/07 07:30:07;;;;;;;13.40;8.35;;;5.80;99.90;;;;;;5089072;28;20024;-76
2022/01/07 07:32:34;;;;;;;14.05;8.38;;;5.90;99.90;;;;;;5075922;28;20028;-76
2022/01/07 07:37:41;;;;;;;11.25;8.55;;;5.90;99.90;;;;;;5074769;28;20123;-76
2022/01/07 07:40:07;;;;;;;15.30;9.73;;;5.90;99.90;;;;;;5074565;28;20059;-76
2022/01/07 07:42:33;;;;;;;15.00;8.52;;;5.90;99.90;;;;;;5074386;28;20036;-76
2022/01/07 07:44:58;;;;;;;17.77;8.95;;;6.00;99.90;;;;;;5083436;28;20081;-76
2022/01/07 07:47:24;;;;;;;15.77;7.95;;;5.90;99.90;;;;;;5084064;28;20047;-76
2022/01/07 07:49:50;;;;;;;12.93;8.73;;;5.90;99.90;;;;;;5089857;28;20020;-74
2022/01/07 07:52:16;;;;;;;20.05;9.00;;;5.90;99.90;;;;;;5093830;28;20024;-75
2022/01/07 07:54:41;;;;;;;16.70;8.25;;;5.90;99.90;;;;;;5093400;28;20873;-76
2022/01/07 07:57:07;;;;;;;13.27;7.50;;;5.90;99.90;;;;;;5094189;28;20043;-76
2022/01/07 07:59:33;;;;;;;11.93;7.82;;;5.90;99.90;;;;;;5094609;28;20024;-76
2022/01/07 08:02:01;;;;;;;13.45;7.82;;;5.90;99.90;;;;;;5089816;28;20039;-77
2022/01/07 08:04:27;;;;;;;16.42;8.48;;;6.00;99.90;;;;;;5088650;28;20055;-77
2022/01/07 08:06:52;;;;;;;15.45;8.35;;;6.10;99.90;;;;;;5074466;28;20493;-76
2022/01/07 08:09:19;;;;;;;13.77;8.65;;;6.10;99.90;;;;;;5073234;28;20029;-77
2022/01/07 08:11:50;;;;;;;13.65;8.25;;;6.00;99.90;;;;;;5073392;28;20021;-77
2022/01/07 08:17:01;;;;;;;12.15;8.27;;;6.10;99.90;;;;;;5074238;28;20058;-77
2022/01/07 08:19:27;;;;;;;14.18;8.65;;;6.10;99.90;;;;;;5074075;28;20091;-77
2022/01/07 08:21:53;;;;;;;14.40;8.07;;;6.10;99.90;;;;;;5073950;28;20399;-77
2022/01/07 08:24:18;;;;;;;12.77;7.53;;;6.10;99.90;;;;;;5073471;28;20021;-77
2022/01/07 08:26:45;;;;;;;12.18;8.13;;;6.10;99.90;;;;;;5072502;28;20041;-77
2022/01/07 08:29:12;;;;;;;11.85;8.00;;;6.10;99.90;;;;;;5072194;28;20381;-77
2022/01/07 08:36:52;;;;;;;11.05;7.43;;;6.20;99.90;;;;;;5081069;28;20073;-77
2022/01/07 08:39:18;;;;;;;13.88;7.20;;;6.10;99.90;;;;;;5092793;28;20103;-77
2022/01/07 08:41:44;;;;;;;10.25;7.45;;;6.20;99.90;;;;;;5087662;28;20028;-77
2022/01/07 08:44:11;;;;;;;12.77;7.47;;;6.20;99.90;;;;;;5081938;28;20113;-77
2022/01/07 08:46:38;;;;;;;11.65;7.25;;;6.20;99.90;;;;;;5079366;28;20101;-77
2022/01/07 08:49:05;;;;;;;13.13;6.82;;;6.20;99.90;;;;;;5081942;28;20020;-77
2022/01/07 08:51:31;;;;;;;12.25;6.80;;;6.20;99.90;;;;;;5083128;28;20104;-77
2022/01/07 08:53:58;;;;;;;9.50;6.30;;;6.20;99.90;;;;;;5079383;28;20025;-77
2022/01/07 08:56:24;;;;;;;8.88;5.50;;;6.20;99.90;;;;;;5081605;28;20025;-77
2022/01/07 08:58:52;;;;;;;12.02;7.18;;;6.20;99.90;;;;;;5083413;28;20013;-78
2022/01/07 09:01:18;;;;;;;10.15;6.30;;;6.20;99.90;;;;;;5079748;28;20021;-77
2022/01/07 09:03:44;;;;;;;7.75;5.90;;;6.30;99.90;;;;;;5082182;28;20023;-78
2022/01/07 09:06:10;;;;;;;9.10;6.25;;;6.30;99.90;;;;;;5087731;28;20047;-78
2022/01/07 09:08:36;;;;;;;10.15;6.20;;;6.30;99.90;;;;;;5090563;28;20045;-77
2022/01/07 09:11:01;;;;;;;9.98;7.07;;;6.30;99.90;;;;;;5088657;28;20036;-78
2022/01/07 09:13:27;;;;;;;8.93;5.88;;;6.30;99.90;;;;;;5080930;28;20456;-78
2022/01/07 09:15:53;;;;;;;7.32;6.22;;;6.30;99.90;;;;;;5082590;28;20449;-78
2022/01/07 09:18:20;;;;;;;8.75;6.60;;;6.30;99.90;;;;;;5082330;28;20023;-78
2022/01/07 09:20:48;;;;;;;11.05;6.60;;;6.30;99.90;;;;;;5072279;28;20492;-78
2022/01/07 09:23:14;;;;;;;9.13;5.78;;;6.30;99.90;;;;;;5071352;28;20031;-80
2022/01/07 09:25:40;;;;;;;9.35;5.80;;;6.30;99.90;;;;;;5071890;28;20489;-78
2022/01/07 09:28:08;;;;;;;12.25;6.03;;;6.30;99.90;;;;;;5070895;28;20155;-78
2022/01/07 09:30:35;;;;;;;8.30;5.57;;;6.30;99.90;;;;;;5071586;28;20021;-79
2022/01/07 09:33:01;;;;;;;13.13;5.20;;;6.30;99.90;;;;;;5072006;28;20047;-79
2022/01/07 09:35:27;;;;;;;12.98;5.25;;;6.40;99.90;;;;;;5073412;28;20524;-79
2022/01/07 09:37:53;;;;;;;8.50;5.93;;;6.40;99.90;;;;;;5071725;28;20036;-78
2022/01/07 09:40:20;;;;;;;9.85;6.10;;;6.30;99.90;;;;;;5070470;28;20021;-78
2022/01/07 09:43:03;;;;;;;7.88;5.45;;;6.30;99.90;;;;;;5073314;28;20067;-78
2022/01/07 09:45:31;;;;;;;11.63;5.85;;;6.40;99.90;;;;;;5077550;28;20435;-78
2022/01/07 09:47:58;;;;;;;8.23;5.57;;;6.50;99.90;;;;;;5071946;28;20036;-76
2022/01/07 09:50:26;;;;;;;8.70;5.78;;;6.50;99.90;;;;;;5069614;28;20021;-76
2022/01/07 09:52:52;;;;;;;10.52;5.80;;;6.50;99.90;;;;;;5071804;28;20078;-75
2022/01/07 09:55:18;;;;;;;7.45;5.25;;;6.40;99.90;;;;;;5072397;28;20025;-75
2022/01/07 09:57:44;;;;;;;8.27;6.80;;;6.50;99.90;;;;;;5086200;28;20028;-75
2022/01/07 10:00:10;;;;;;;10.60;6.00;;;6.50;99.90;;;;;;5072385;28;20028;-75
2022/01/07 10:02:36;;;;;;;9.30;5.88;;;6.60;99.90;;;;;;5080801;28;20499;-75
2022/01/07 10:05:19;;;;;;;9.45;6.75;;;6.60;99.90;;;;;;5076968;28;20059;-75
2022/01/07 10:07:45;;;;;;;12.65;6.72;;;6.60;99.90;;;;;;5085836;28;20025;-75
2022/01/07 10:10:18;;;;;;;10.88;6.18;;;6.70;99.90;;;;;;5072142;28;20050;-79
2022/01/07 10:12:52;;;;;;;12.32;6.63;;;6.70;99.90;;;;;;5071566;28;20416;-79
2022/01/07 10:15:26;;;;;;;8.77;6.00;;;6.70;99.90;;;;;;5072712;28;20021;-76
2022/01/07 10:18:06;;;;;;;13.82;6.10;;;6.80;99.90;;;;;;5075602;28;20028;-73
2022/01/07 10:20:33;;;;;;;10.25;6.97;;;6.90;99.90;;;;;;5085801;28;20031;-76
2022/01/07 10:23:02;;;;;;;8.57;6.03;;;6.90;99.90;;;;;;5076375;28;20109;-76
2022/01/07 10:25:30;;;;;;;9.10;6.05;;;6.90;99.90;;;;;;5075166;28;20066;-78
2022/01/07 10:28:30;;;;;;;11.63;6.43;;;6.80;99.90;;;;;;5075504;28;20028;-78
2022/01/07 10:30:55;;;;;;;12.75;6.38;;;6.80;99.90;;;;;;5074791;28;20400;-78
2022/01/07 10:33:27;;;;;;;13.13;7.47;;;6.90;99.90;;;;;;5095836;28;20050;-77
2022/01/07 10:36:14;;;;;;;11.10;6.72;;;6.90;99.90;;;;;;5089954;28;20024;-77
2022/01/07 10:38:53;;;;;;;9.85;6.07;;;7.00;99.90;;;;;;5075396;28;20025;-78
2022/01/07 10:41:19;;;;;;;8.02;5.57;;;7.00;99.90;;;;;;5086932;28;20076;-76
2022/01/07 10:43:45;;;;;;;11.43;6.53;;;7.10;99.90;;;;;;5095695;28;20024;-78
2022/01/07 10:46:11;;;;;;;10.70;5.88;;;7.20;99.90;;;;;;5095629;28;20055;-78
2022/01/07 10:48:43;;;;;;;13.63;5.82;;;7.20;99.90;;;;;;5094802;28;20492;-79
2022/01/07 10:51:26;;;;;;;15.88;5.88;;;7.20;99.90;;;;;;5094332;28;20500;-79
2022/01/07 10:53:58;;;;;;;;;;;7.20;99.90;;;;;;5094888;28;20028;-78
2022/01/07 10:56:37;;;;;;;9.43;5.68;;;7.20;99.90;;;;;;5094913;28;19911;-78
2022/01/07 10:59:14;;;;;;;10.85;5.97;;;7.40;99.90;;;;;;5095650;28;20488;-78
2022/01/07 11:01:43;;;;;;;12.02;6.35;;;7.30;99.90;;;;;;5093262;28;20028;-77
2022/01/07 11:04:20;;;;;;;13.52;7.10;;;7.30;99.90;;;;;;5095581;28;20063;-81
2022/01/07 11:06:48;;;;;;;11.50;5.45;;;7.30;99.90;;;;;;5082338;28;20036;-80
2022/01/07 11:09:15;;;;;;;11.63;6.05;;;7.30;99.90;;;;;;5075305;28;20028;-81
2022/01/07 11:11:57;;;;;;;10.18;5.50;;;7.40;99.90;;;;;;5076112;28;20029;-83
2022/01/07 11:14:25;;;;;;;11.18;6.07;;;7.40;99.90;;;;;;5075272;28;20033;-81
2022/01/07 11:16:51;;;;;;;10.52;5.30;;;7.40;99.90;;;;;;5077035;28;20107;-82
2022/01/07 11:19:23;;;;;;;14.05;7.20;;;7.40;99.90;;;;;;5087053;28;20149;-83
2022/01/07 11:21:52;;;;;;;9.73;6.10;;;7.40;99.90;;;;;;5077070;28;20078;-82
2022/01/07 11:24:44;;;;;;;16.30;7.25;;;7.50;99.90;;;;;;5084943;28;20020;-82
2022/01/07 11:27:11;;;;;;;19.55;6.97;;;7.50;99.90;;;;;;5084190;28;20038;-80
2022/01/07 11:29:39;;;;;;;12.43;6.07;;;7.60;99.90;;;;;;5082765;28;20019;-79
2022/01/07 11:32:32;;;;;;;13.45;6.78;;;7.60;99.90;;;;;;5081900;28;20464;-78
2022/01/07 11:35:20;;;;;;;;;;;7.60;99.90;;;;;;5085767;28;20031;-74
2022/01/07 11:37:51;;;;;;;14.32;7.00;;;7.60;99.90;;;;;;5083838;28;20323;-76
2022/01/07 11:40:29;;;;;;;15.30;7.85;;;7.60;99.90;;;;;;5083880;28;20105;-74
2022/01/07 11:42:57;;;;;;;17.85;7.72;;;7.50;99.90;;;;;;5083033;28;20013;-75
2022/01/07 11:45:35;;;;;;;22.15;8.95;;;7.50;99.90;;;;;;5083364;28;20097;-76
2022/01/07 11:48:20;;;;;;;17.60;7.80;;;7.50;99.90;;;;;;5084224;28;20044;-76
2022/01/07 11:50:56;;;;;;;15.85;8.13;;;7.60;99.90;;;;;;5092538;28;20415;-77
2022/01/07 11:53:45;;;;;;;19.05;8.45;;;7.60;99.90;;;;;;5094137;28;20484;-76
2022/01/07 11:56:13;;;;;;;16.42;7.00;;;7.70;99.90;;;;;;5093743;28;20054;-75
2022/01/07 11:58:51;;;;;;;9.48;4.38;;;7.60;99.90;;;;;;5093191;28;20028;-76
2022/01/07 12:01:28;;;;;;;12.63;4.68;;;7.40;99.90;;;;;;5093466;28;20058;-78
2022/01/07 12:04:00;;;;;;;14.25;5.88;;;7.30;99.90;;;;;;5094513;28;20047;-77
2022/01/07 12:06:31;;;;;;;13.00;7.03;;;7.30;99.90;;;;;;5088939;28;20059;-77
2022/01/07 12:09:04;;;;;;;13.53;7.10;;;7.30;99.90;;;;;;5084265;28;20008;-76
2022/01/07 12:11:36;;;;;;;16.35;8.07;;;7.20;99.90;;;;;;5082742;28;20078;-75
2022/01/07 12:14:16;;;;;;;19.85;8.88;;;7.40;99.90;;;;;;5082668;28;20039;-74
2022/01/07 12:16:44;;;;;;;22.80;8.82;;;7.30;99.90;;;;;;5081855;28;20107;-74
2022/01/07 12:19:18;;;;;;;20.88;8.60;;;7.30;99.90;;;;;;5083133;28;20032;-75
2022/01/07 12:21:49;;;;;;;23.13;9.02;;;7.40;99.90;;;;;;5081730;28;20024;-75
2022/01/07 12:24:17;;;;;;;23.05;9.88;;;7.30;99.90;;;;;;5085285;28;20086;-74
2022/01/07 12:26:43;;;;;;;20.30;9.02;;;7.40;99.90;;;;;;5086659;28;20036;-75
2022/01/07 12:29:20;;;;;;;19.33;7.75;;;7.40;99.90;;;;;;5083150;28;20042;-75
2022/01/07 12:31:51;;;;;;;16.77;7.28;;;7.40;99.90;;;;;;5081819;28;20028;-75
2022/01/07 12:34:28;;;;;;;13.63;7.13;;;7.40;99.90;;;;;;5082344;28;20017;-76
2022/01/07 12:37:02;;;;;;;15.18;6.45;;;7.50;99.90;;;;;;5099703;28;20488;-76
2022/01/07 12:39:32;;;;;;;16.15;7.13;;;7.60;99.90;;;;;;5082468;28;20028;-76
2022/01/07 12:41:58;;;;;;;15.00;7.00;;;7.60;99.90;;;;;;5082952;28;20038;-75
2022/01/07 12:44:25;;;;;;;18.95;7.40;;;7.60;99.90;;;;;;5081663;28;20032;-75
2022/01/07 12:46:57;;;;;;;16.35;5.85;;;7.50;99.90;;;;;;5085177;28;20038;-75
2022/01/07 12:49:40;;;;;;;9.32;4.10;;;7.60;99.90;;;;;;5093257;28;20377;-76
2022/01/07 12:52:08;;;;;;;13.80;4.40;;;7.60;99.90;;;;;;5091916;28;20024;-75
2022/01/07 12:54:34;;;;;;;8.80;3.58;;;7.50;99.90;;;;;;5091390;28;20028;-76
2022/01/07 12:57:00;;;;;;;9.77;3.47;;;7.50;99.90;;;;;;5092776;28;20032;-77
2022/01/07 12:59:26;;;;;;;5.65;3.00;;;7.40;99.90;;;;;;5092819;28;20020;-77
2022/01/07 13:01:53;;;;;;;6.22;3.55;;;7.50;99.90;;;;;;5091000;28;20024;-76
2022/01/07 13:04:22;;;;;;;8.40;3.10;;;7.50;99.90;;;;;;5093090;28;20077;-76